Time;durP1;ratioP1;P1;durP2;ratioP2;P2;SDS_P1;SDS_P2;PMS_P1;PMS_P2;Temp;Humidity;BMP_temperature;BMP_pressure;BME280_temperature;BME280_humidity;BME280_pressure;Samples;Min_cycle;Max_cycle;Signal;HPM_P1;HPM_P2
2023/06/10 00:01:37;;;;;;;3.90;2.85;;;;;;;18.70;100.00;99901.28;4985929;28;20050;-75
2023/06/10 00:04:04;;;;;;;8.13;3.80;;;;;;;18.83;100.00;99914.09;4979459;28;20042;-74
2023/06/10 00:06:35;;;;;;;7.47;4.60;;;;;;;18.54;100.00;99858.56;4988377;28;20030;-75
2023/06/10 00:09:05;;;;;;;5.68;3.78;;;;;;;18.95;100.00;99925.06;4988221;28;20402;-74
2023/06/10 00:11:35;;;;;;;9.35;4.25;;;;;;;19.06;100.00;99985.78;4984601;28;20066;-74
2023/06/10 00:14:01;;;;;;;5.97;3.70;;;;;;;18.95;100.00;99945.50;4987905;28;20069;-74
2023/06/10 00:16:27;;;;;;;4.32;3.42;;;;;;;19.05;100.00;99989.38;4984702;28;20065;-74
2023/06/10 00:18:55;;;;;;;7.10;4.30;;;;;;;17.98;100.00;99877.66;4983364;28;20065;-74
2023/06/10 00:21:21;;;;;;;4.95;3.63;;;;;;;17.48;100.00;99801.66;4986984;28;20100;-75
2023/06/10 00:23:46;;;;;;;6.75;3.60;;;;;;;17.93;100.00;99891.09;4987197;28;20050;-75
2023/06/10 00:26:12;;;;;;;6.60;3.47;;;;;;;17.93;100.00;99917.66;4986829;28;20113;-75
2023/06/10 00:28:37;;;;;;;5.75;3.50;;;;;;;18.45;100.00;99962.56;4986566;28;20057;-75
2023/06/10 00:31:04;;;;;;;4.28;2.60;;;;;;;18.54;100.00;99972.81;4983741;28;20111;-76
2023/06/10 00:33:30;;;;;;;6.88;3.45;;;;;;;17.80;100.00;99857.09;5012440;28;20052;-76
2023/06/10 00:35:56;;;;;;;4.68;3.20;;;;;;;17.88;100.00;99878.91;4983729;28;20054;-76
2023/06/10 00:38:23;;;;;;;4.80;2.97;;;;;;;18.51;100.00;99966.75;4984830;28;20054;-75
2023/06/10 00:40:49;;;;;;;6.90;3.40;;;;;;;18.06;100.00;99907.41;4983434;28;20054;-73
2023/06/10 00:43:14;;;;;;;6.90;3.72;;;;;;;18.22;100.00;99962.59;4984821;28;20443;-74
2023/06/10 00:45:41;;;;;;;3.95;2.33;;;;;;;18.37;100.00;99979.72;4980696;28;20041;-74
2023/06/10 00:48:07;;;;;;;6.80;3.83;;;;;;;17.75;100.00;99861.69;4985711;28;20034;-74
2023/06/10 00:50:34;;;;;;;7.35;4.05;;;;;;;18.10;100.00;99959.47;4980120;28;20057;-75
2023/06/10 00:53:02;;;;;;;7.68;3.38;;;;;;;17.94;100.00;99939.75;4984902;28;20161;-73
2023/06/10 00:55:28;;;;;;;4.22;2.03;;;;;;;17.56;100.00;99849.16;4980199;28;20057;-74
2023/06/10 01:01:37;;;;;;;6.20;3.55;;;;;;;17.95;100.00;99908.75;4981469;28;20062;-74
2023/06/10 01:07:24;;;;;;;5.88;4.18;;;;;;;17.94;100.00;99939.75;4984420;28;20065;-74
2023/06/10 01:10:17;;;;;;;5.25;2.63;;;;;;;18.09;100.00;99980.75;4981724;28;20034;-74
2023/06/10 01:12:56;;;;;;;4.55;2.33;;;;;;;17.40;100.00;99895.75;4977199;28;20034;-74
2023/06/10 01:15:22;;;;;;;8.65;2.80;;;;;;;17.36;100.00;99873.75;4986832;28;20030;-74
2023/06/10 01:18:03;;;;;;;4.78;2.53;;;;;;;17.96;100.00;99983.03;4986083;28;20054;-75
2023/06/10 01:20:31;;;;;;;4.65;2.63;;;;;;;17.66;100.00;99940.72;4986490;28;20137;-75
2023/06/10 01:22:58;;;;;;;4.00;2.15;;;;;;;17.38;100.00;99902.88;4984741;28;20057;-75
2023/06/10 01:25:32;;;;;;;4.22;2.38;;;;;;;17.20;100.00;99878.75;4986914;28;20042;-75
2023/06/10 01:28:21;;;;;;;6.63;2.63;;;;;;;17.64;100.00;99981.53;4988652;28;20091;-75
2023/06/10 01:30:53;;;;;;;3.45;2.50;;;;;;;16.88;100.00;99872.81;4986469;28;20088;-75
2023/06/10 01:33:27;;;;;;;4.88;2.30;;;;;;;17.63;100.00;99967.38;4983700;28;20100;-75
2023/06/10 01:35:53;;;;;;;6.00;3.20;;;;;;;17.61;100.00;99974.53;4986000;28;20534;-75
2023/06/10 01:38:20;;;;;;;9.73;2.55;;;;;;;17.64;100.00;99965.59;4986632;28;20085;-74
2023/06/10 01:40:46;;;;;;;4.45;2.15;;;;;;;17.59;100.00;99981.69;4986030;28;20111;-75
2023/06/10 01:43:12;;;;;;;4.68;2.40;;;;;;;17.03;100.00;99874.03;4986465;28;20046;-75
2023/06/10 01:45:37;;;;;;;12.02;3.13;;;;;;;16.86;100.00;99860.53;4986616;28;20482;-74
2023/06/10 01:48:03;;;;;;;8.20;2.80;;;;;;;17.15;100.00;99916.94;4985274;28;20039;-75
2023/06/10 01:50:28;;;;;;;6.68;3.28;;;;;;;16.73;100.00;99837.97;4984947;28;20038;-75
2023/06/10 01:52:54;;;;;;;5.38;2.53;;;;;;;16.80;100.00;99853.63;4984675;28;20054;-75
2023/06/10 01:55:19;;;;;;;4.90;2.70;;;;;;;17.41;100.00;99959.31;4984645;28;20042;-77
2023/06/10 01:57:45;;;;;;;8.40;2.00;;;;;;;17.49;100.00;99977.63;4985863;28;20030;-74
2023/06/10 02:00:11;;;;;;;4.05;1.95;;;;;;;17.39;100.00;99952.34;4986645;28;20030;-76
2023/06/10 02:02:36;;;;;;;4.13;2.15;;;;;;;17.09;100.00;99910.94;4981491;28;20050;-78
2023/06/10 02:05:02;;;;;;;9.40;3.22;;;;;;;17.45;100.00;99983.97;4986040;28;20049;-75
2023/06/10 02:07:28;;;;;;;9.10;2.70;;;;;;;17.43;100.00;99972.53;4985856;28;20038;-74
2023/06/10 02:09:53;;;;;;;4.05;2.50;;;;;;;17.30;100.00;99965.03;4984990;28;20033;-75
2023/06/10 02:12:19;;;;;;;4.93;2.42;;;;;;;16.78;100.00;99883.72;4980088;28;20034;-74
2023/06/10 02:14:44;;;;;;;4.40;2.10;;;;;;;16.65;100.00;99857.66;4984316;28;20058;-75
2023/06/10 02:17:12;;;;;;;8.60;3.13;;;;;;;16.70;100.00;99873.41;4984022;28;20128;-75
2023/06/10 02:19:42;;;;;;;5.07;2.83;;;;;;;17.22;100.00;99988.28;4983254;28;20046;-75
2023/06/10 02:22:09;;;;;;;4.63;2.67;;;;;;;17.05;100.00;99950.88;4985672;28;20538;-75
2023/06/10 02:24:37;;;;;;;4.20;2.45;;;;;;;17.28;100.00;99973.94;4986085;28;20038;-74
2023/06/10 02:27:06;;;;;;;5.65;3.15;;;;;;;16.91;100.00;99938.09;4985837;28;20225;-75
2023/06/10 02:29:33;;;;;;;6.72;3.67;;;;;;;16.41;100.00;99862.00;4985860;28;20066;-75
2023/06/10 02:31:58;;;;;;;6.65;2.85;;;;;;;16.68;100.00;99907.03;4985707;28;20157;-74
2023/06/10 02:34:24;;;;;;;10.88;3.92;;;;;;;16.46;100.00;99865.34;4983248;28;20050;-76
2023/06/10 02:36:51;;;;;;;4.82;2.75;;;;;;;16.48;100.00;99881.19;4984792;28;20631;-76
2023/06/10 02:39:16;;;;;;;4.43;2.70;;;;;;;16.99;100.00;99962.53;4980830;28;20031;-77
2023/06/10 02:41:42;;;;;;;7.88;3.15;;;;;;;17.00;100.00;99993.44;4981145;28;20141;-76
2023/06/10 02:44:07;;;;;;;11.80;3.30;;;;;;;16.84;100.00;99952.47;4978251;28;20055;-76
2023/06/10 02:46:34;;;;;;;4.50;2.97;;;;;;;16.35;100.00;99871.91;4985047;28;20042;-76
2023/06/10 02:49:00;;;;;;;4.70;2.63;;;;;;;16.96;100.00;99977.69;4984800;28;20097;-75
2023/06/10 02:51:25;;;;;;;5.07;2.20;;;;;;;16.32;100.00;99891.44;4987353;28;20042;-75
2023/06/10 02:53:51;;;;;;;6.20;3.28;;;;;;;16.99;100.00;99993.47;4983634;28;20493;-75
2023/06/10 02:56:17;;;;;;;3.53;2.47;;;;;;;16.75;100.00;99964.19;4985437;28;20413;-76
2023/06/10 02:58:42;;;;;;;5.05;2.40;;;;;;;16.73;100.00;99954.56;4985546;28;20494;-75
2023/06/10 03:01:09;;;;;;;9.00;3.72;;;;;;;16.51;100.00;99904.06;4982588;28;20183;-76
2023/06/10 03:03:36;;;;;;;6.45;3.67;;;;;;;17.10;100.00;99994.00;4981563;28;20048;-75
2023/06/10 03:06:02;;;;;;;4.82;2.83;;;;;;;16.90;100.00;99986.69;4981449;28;20088;-75
2023/06/10 03:08:28;;;;;;;12.52;5.15;;;;;;;17.01;100.00;100004.91;4981838;28;20059;-76
2023/06/10 03:10:54;;;;;;;5.38;2.85;;;;;;;16.50;100.00;99904.97;4983011;28;20514;-74
2023/06/10 03:13:19;;;;;;;5.50;3.10;;;;;;;16.74;100.00;99941.28;4980668;28;20061;-75
2023/06/10 03:15:45;;;;;;;4.30;2.78;;;;;;;16.88;100.00;99962.06;4988115;28;20022;-76
2023/06/10 03:18:11;;;;;;;6.35;3.33;;;;;;;16.72;100.00;99929.84;4987445;28;20026;-73
2023/06/10 03:20:37;;;;;;;4.93;2.70;;;;;;;17.02;100.00;99991.59;4982965;28;20055;-73
2023/06/10 03:23:06;;;;;;;7.22;2.67;;;;;;;17.19;100.00;100001.63;4988245;28;20565;-74
2023/06/10 03:25:32;;;;;;;11.45;3.63;;;;;;;16.71;100.00;99912.22;4986009;28;20745;-74
2023/06/10 03:27:57;;;;;;;5.40;2.97;;;;;;;16.91;100.00;99951.34;4977836;28;20054;-74
2023/06/10 03:30:22;;;;;;;4.20;2.78;;;;;;;16.77;100.00;99922.63;4983479;28;20038;-74
2023/06/10 03:32:49;;;;;;;5.30;3.22;;;;;;;16.92;100.00;99968.97;4982482;28;20054;-76
2023/06/10 03:35:14;;;;;;;4.78;2.92;;;;;;;17.11;100.00;99966.56;4980866;28;20046;-76
2023/06/10 03:37:40;;;;;;;5.32;3.28;;;;;;;16.38;100.00;99877.09;4984139;28;20054;-77
2023/06/10 03:40:08;;;;;;;6.38;3.30;;;;;;;16.16;100.00;99840.75;4987260;28;20038;-76
2023/06/10 03:42:34;;;;;;;7.63;3.80;;;;;;;17.04;100.00;99983.59;4983311;28;20391;-76
2023/06/10 03:44:59;;;;;;;5.38;3.03;;;;;;;16.63;100.00;99904.53;4980262;28;20038;-76
2023/06/10 03:47:25;;;;;;;8.05;4.75;;;;;;;16.72;100.00;99918.41;4987471;28;20076;-75
2023/06/10 03:49:52;;;;;;;14.52;4.20;;;;;;;17.32;100.00;99995.91;4985313;28;20042;-75
2023/06/10 03:52:18;;;;;;;12.00;2.25;;;;;;;16.99;100.00;99925.41;4988812;28;20054;-76
2023/06/10 03:54:43;;;;;;;3.95;2.67;;;;;;;17.31;100.00;99960.56;4987117;28;20080;-75
2023/06/10 03:57:09;;;;;;;5.95;3.00;;;;;;;16.96;100.00;99904.34;4989338;28;20109;-75
2023/06/10 03:59:35;;;;;;;4.22;2.80;;;;;;;17.50;100.00;99987.31;4986740;28;20038;-75
2023/06/10 04:02:01;;;;;;;4.93;3.15;;;;;;;17.52;100.00;99982.81;4983161;28;20047;-75
2023/06/10 04:04:26;;;;;;;7.70;3.20;;;;;;;17.01;100.00;99873.22;4980673;28;20478;-75
2023/06/10 04:06:52;;;;;;;5.32;3.03;;;;;;;17.00;100.00;99892.72;4988271;28;20030;-75
2023/06/10 04:09:18;;;;;;;5.05;2.58;;;;;;;17.16;100.00;99894.81;4989186;28;20467;-75
2023/06/10 04:11:44;;;;;;;4.13;2.80;;;;;;;17.22;100.00;99886.66;4981967;28;20088;-75
2023/06/10 04:14:09;;;;;;;7.35;2.55;;;;;;;17.51;100.00;99904.13;4986277;28;20043;-74
2023/06/10 04:16:35;;;;;;;5.50;3.17;;;;;;;17.46;100.00;99899.00;4987004;28;20064;-74
2023/06/10 04:19:00;;;;;;;5.00;2.22;;;;;;;17.65;100.00;99924.84;4988074;28;20070;-75
2023/06/10 04:21:27;;;;;;;5.25;2.63;;;;;;;18.26;100.00;100009.31;4988717;28;20069;-73
2023/06/10 04:23:53;;;;;;;5.70;2.80;;;;;;;17.84;100.00;99901.19;4988006;28;20042;-72
2023/06/10 04:26:19;;;;;;;6.15;3.15;;;;;;;18.31;100.00;100028.63;4982282;28;20042;-72
2023/06/10 04:28:44;;;;;;;2.53;1.90;;;;;;;17.82;100.00;99926.94;4986308;28;20045;-74
2023/06/10 04:31:10;;;;;;;4.15;2.55;;;;;;;18.55;100.00;100016.19;4986856;28;20429;-76
2023/06/10 04:33:36;;;;;;;5.40;3.55;;;;;;;17.85;100.00;99898.47;4986514;28;20494;-76
2023/06/10 04:36:03;;;;;;;6.30;3.10;;;;;;;18.54;100.00;100014.44;4987607;28;20050;-74
2023/06/10 04:38:30;;;;;;;4.65;2.17;;;;;;;18.54;100.00;100017.09;4985411;28;20090;-75
2023/06/10 04:40:56;;;;;;;4.05;2.47;;;;;;;18.27;100.00;99961.47;4982068;28;20580;-75
2023/06/10 04:43:21;;;;;;;4.95;2.80;;;;;;;18.82;100.00;100029.31;4979519;28;20088;-75
2023/06/10 04:45:47;;;;;;;4.07;2.53;;;;;;;18.66;100.00;100024.59;4987366;28;20045;-74
2023/06/10 04:48:13;;;;;;;5.93;2.50;;;;;;;17.99;100.00;99892.66;4981329;28;20035;-74
2023/06/10 04:50:39;;;;;;;4.70;3.30;;;;;;;18.23;100.00;99932.44;4987602;28;20544;-75
2023/06/10 04:53:05;;;;;;;6.22;3.50;;;;;;;18.97;100.00;100018.09;4981005;28;20058;-75
2023/06/10 04:55:31;;;;;;;4.18;2.50;;;;;;;18.90;100.00;99998.84;4983239;28;20035;-74
2023/06/10 04:57:58;;;;;;;7.28;3.60;;;;;;;18.62;100.00;99947.72;4987112;28;20564;-75
2023/06/10 05:00:23;;;;;;;7.72;2.97;;;;;;;19.15;100.00;100038.59;4986180;28;20069;-75
2023/06/10 05:02:49;;;;;;;4.47;2.33;;;;;;;19.39;100.00;100038.50;4986815;28;20105;-75
2023/06/10 05:05:18;;;;;;;3.80;2.20;;;;;;;18.59;100.00;99868.09;4987006;28;20482;-76
2023/06/10 05:07:44;;;;;;;5.43;2.72;;;;;;;19.68;100.00;100007.09;4985299;28;20038;-76
2023/06/10 05:10:11;;;;;;;5.40;3.15;;;;;;;19.03;100.00;99916.75;4986369;28;20042;-76
2023/06/10 05:12:38;;;;;;;6.18;2.75;;;;;;;19.79;100.00;100052.78;4979178;28;20060;-74
2023/06/10 05:15:05;;;;;;;5.38;3.05;;;;;;;19.70;100.00;100023.91;4983940;28;20813;-79
2023/06/10 05:17:31;;;;;;;4.53;2.65;;;;;;;19.67;100.00;100037.31;4984388;28;20050;-79
2023/06/10 05:19:56;;;;;;;5.70;3.08;;;;;;;19.25;100.00;99939.78;4985513;28;20065;-81
2023/06/10 05:22:24;;;;;;;4.82;2.30;;;;;;;19.43;100.00;99946.09;4980995;28;20084;-72
2023/06/10 05:24:51;;;;;;;7.38;2.42;;;;;;;20.24;100.00;99953.06;4985092;28;20042;-74
2023/06/10 05:27:18;;;;;;;9.50;2.35;;;;;;;20.77;100.00;100028.78;4982772;28;20434;-73
2023/06/10 05:29:43;;;;;;;5.00;2.95;;;;;;;20.69;100.00;100034.47;4983209;28;20050;-73
2023/06/10 05:32:09;;;;;;;6.03;3.20;;;;;;;20.35;100.00;99982.75;4982604;28;20041;-74
2023/06/10 05:34:34;;;;;;;5.38;3.17;;;;;;;20.36;100.00;99938.28;4984658;28;20077;-73
2023/06/10 05:36:59;;;;;;;7.10;2.92;;;;;;;19.87;100.00;99927.28;4978660;28;20046;-74
2023/06/10 05:39:25;;;;;;;4.70;3.00;;;;;;;20.64;100.00;100039.16;4983981;28;20529;-73
2023/06/10 05:41:50;;;;;;;4.28;2.30;;;;;;;20.59;100.00;99948.72;4982354;28;20066;-74
2023/06/10 05:44:16;;;;;;;3.75;2.20;;;;;;;20.11;100.00;99899.53;4977330;28;20065;-72
2023/06/10 05:46:41;;;;;;;5.28;3.38;;;;;;;21.22;100.00;100041.66;4975659;28;20061;-73
2023/06/10 05:49:07;;;;;;;7.60;2.33;;;;;;;20.74;100.00;99927.59;4983564;28;20038;-73
2023/06/10 05:51:32;;;;;;;8.63;2.85;;;;;;;20.71;100.00;99944.59;4983169;28;20093;-73
2023/06/10 05:53:58;;;;;;;6.22;3.13;;;;;;;20.72;100.00;99926.78;4981568;28;20058;-75
2023/06/10 05:56:23;;;;;;;5.00;3.03;;;;;;;21.27;100.00;100036.09;4984222;28;20038;-72
2023/06/10 05:58:49;;;;;;;4.68;2.85;;;;;;;21.40;100.00;100020.31;4981863;28;20050;-74
2023/06/10 06:01:15;;;;;;;6.18;3.53;;;;;;;21.57;100.00;100044.38;4975951;28;20038;-72
2023/06/10 06:03:40;;;;;;;6.97;3.00;;;;;;;20.60;100.00;99942.47;4980397;28;20042;-74
2023/06/10 06:06:06;;;;;;;4.80;2.72;;;;;;;20.78;100.00;100001.16;4984026;28;20039;-72
2023/06/10 06:08:32;;;;;;;13.60;2.92;;;;;;;20.44;100.00;99958.31;4988993;28;20784;-74
2023/06/10 06:10:57;;;;;;;3.75;2.05;;;;;;;20.84;100.00;99998.22;4978365;28;20066;-72
2023/06/10 06:13:23;;;;;;;4.75;2.83;;;;;;;21.01;100.00;100054.25;4981758;28;20049;-72
2023/06/10 06:15:49;;;;;;;4.63;2.03;;;;;;;21.57;100.00;100044.38;4977852;28;20466;-72
2023/06/10 06:18:15;;;;;;;5.30;2.80;;;;;;;21.10;100.00;99940.03;5012004;28;20122;-72
2023/06/10 06:20:40;;;;;;;2.97;2.08;;;;;;;22.13;100.00;100067.25;4987349;28;20042;-73
2023/06/10 06:23:06;;;;;;;9.60;2.53;;;;;;;21.47;100.00;100022.63;4984942;28;20149;-73
2023/06/10 06:25:31;;;;;;;9.77;2.78;;;;;;;21.31;100.00;99944.25;4983697;28;20149;-74
2023/06/10 06:27:57;;;;;;;3.42;1.75;;;;;;;21.64;100.00;100032.44;4981284;28;20140;-71
2023/06/10 06:30:22;;;;;;;4.43;2.33;;;;;;;21.58;100.00;99998.03;4976117;28;20050;-74
2023/06/10 06:32:48;;;;;;;7.45;1.98;;;;;;;21.35;100.00;99900.41;4977402;28;20066;-70
2023/06/10 06:35:13;;;;;;;4.65;1.80;;;;;;;22.40;100.00;100052.50;4981673;28;20484;-74
2023/06/10 06:37:38;;;;;;;5.57;2.15;;;;;;;22.30;100.00;99974.63;4984251;28;20059;-72
2023/06/10 06:40:05;;;;;;;4.15;2.42;;;;;;;22.40;100.00;100028.44;4983331;28;20536;-73
2023/06/10 06:42:30;;;;;;;3.47;2.40;;;;;;;22.81;100.00;100031.47;4984597;28;20046;-73
2023/06/10 06:44:56;;;;;;;5.93;2.70;;;;;;;22.58;100.00;100026.56;4983786;28;20672;-78
2023/06/10 06:47:21;;;;;;;7.35;2.17;;;;;;;22.67;100.00;100026.03;4983488;28;20121;-77
2023/06/10 06:49:47;;;;;;;8.30;3.75;;;;;;;22.97;100.00;100047.50;4984867;28;20744;-77
2023/06/10 06:52:13;;;;;;;4.90;2.28;;;;;;;23.19;100.00;100047.16;4984475;28;20057;-76
2023/06/10 06:54:38;;;;;;;6.55;3.15;;;;;;;22.97;100.00;99988.63;4983349;28;20065;-78
2023/06/10 06:57:05;;;;;;;18.65;2.85;;;;;;;22.60;100.00;99944.44;4984353;28;20130;-77
2023/06/10 06:59:31;;;;;;;3.85;1.90;;;;;;;23.33;100.00;100024.94;4984635;28;20061;-76
2023/06/10 07:01:56;;;;;;;3.25;1.80;;;;;;;23.62;100.00;100033.88;4981659;28;20055;-77
2023/06/10 07:04:22;;;;;;;3.95;2.28;;;;;;;23.39;100.00;99937.06;4978940;28;20050;-75
2023/06/10 07:06:48;;;;;;;4.70;2.58;;;;;;;23.91;100.00;100024.13;4982470;28;20712;-72
2023/06/10 07:09:13;;;;;;;3.50;2.20;;;;;;;23.86;100.00;100033.38;4977935;28;20726;-72
2023/06/10 07:11:39;;;;;;;3.80;2.00;;;;;;;23.70;100.00;100041.47;4969978;28;20046;-73
2023/06/10 07:14:05;;;;;;;4.53;2.53;;;;;;;23.73;100.00;100012.66;4976552;28;20475;-76
2023/06/10 07:16:30;;;;;;;7.35;2.58;;;;;;;24.14;100.00;100000.34;4970288;28;20148;-74
2023/06/10 07:18:56;;;;;;;9.40;2.33;;;;;;;24.29;100.00;99985.13;4976788;28;20041;-76
2023/06/10 07:21:23;;;;;;;5.47;3.17;;;;;;;24.44;100.00;100043.16;4977936;28;20038;-75
2023/06/10 07:23:48;;;;;;;5.18;2.25;;;;;;;24.31;100.00;100023.44;4978394;28;20050;-77
2023/06/10 07:26:14;;;;;;;4.10;1.83;;;;;;;24.61;100.00;100023.34;4980116;28;20483;-71
2023/06/10 07:28:41;;;;;;;7.07;2.60;;;;;;;24.46;100.00;100016.22;4982722;28;21237;-70
2023/06/10 07:31:07;;;;;;;3.63;1.80;;;;;;;24.23;100.00;100029.28;4978697;28;20054;-70
2023/06/10 07:33:33;;;;;;;4.47;2.60;;;;;;;24.00;100.00;99939.59;4983523;28;20069;-71
2023/06/10 07:35:58;;;;;;;4.70;1.60;;;;;;;23.89;100.00;99967.06;4984499;28;20777;-70
2023/06/10 07:38:25;;;;;;;5.03;2.40;;;;;;;23.72;95.02;99953.84;4984380;28;20055;-70
2023/06/10 07:40:50;;;;;;;4.85;2.22;;;;;;;23.97;92.07;99950.50;4981540;28;20078;-71
2023/06/10 07:43:16;;;;;;;4.22;2.35;;;;;;;24.28;100.00;100016.47;4981244;28;20053;-72
2023/06/10 07:45:41;;;;;;;2.92;1.83;;;;;;;23.69;97.86;99928.06;4984052;28;20414;-72
2023/06/10 07:48:07;;;;;;;4.43;3.05;;;;;;;24.01;96.17;99942.16;4980537;28;20072;-72
2023/06/10 07:50:33;;;;;;;3.83;2.47;;;;;;;23.56;100.00;99921.78;4984262;28;20430;-71
2023/06/10 07:52:58;;;;;;;4.00;2.40;;;;;;;24.02;96.11;99954.63;4981777;28;20084;-73
2023/06/10 07:55:25;;;;;;;6.28;2.50;;;;;;;24.33;98.81;99973.25;4982682;28;20062;-72
2023/06/10 07:57:52;;;;;;;18.13;2.92;;;;;;;24.90;97.60;100032.16;4978296;28;20041;-70
2023/06/10 08:00:17;;;;;;;10.80;2.50;;;;;;;24.68;98.21;100032.72;4980706;28;20134;-72
2023/06/10 08:02:43;;;;;;;4.05;2.13;;;;;;;24.87;89.69;100021.63;4980635;28;20050;-71
2023/06/10 08:05:09;;;;;;;4.47;2.20;;;;;;;24.36;91.64;99873.81;4977390;28;20050;-71
2023/06/10 08:07:35;;;;;;;3.05;2.17;;;;;;;24.90;93.01;100024.09;4980336;28;20046;-70
2023/06/10 08:10:01;;;;;;;3.58;1.63;;;;;;;24.12;93.74;99928.09;4979384;28;20046;-70
2023/06/10 08:12:27;;;;;;;2.88;2.08;;;;;;;24.20;86.52;99936.50;4982305;28;20505;-70
2023/06/10 08:14:53;;;;;;;4.68;2.13;;;;;;;24.82;90.61;100027.31;4983348;28;20057;-70
2023/06/10 08:17:19;;;;;;;7.25;4.72;;;;;;;23.92;91.54;99923.97;4987869;28;20039;-71
2023/06/10 08:19:44;;;;;;;4.30;2.67;;;;;;;24.19;86.03;99934.78;4987538;28;20050;-70
2023/06/10 08:22:11;;;;;;;4.47;2.10;;;;;;;24.47;88.37;100026.03;4985534;28;20050;-71
2023/06/10 08:24:36;;;;;;;2.97;1.33;;;;;;;24.26;89.11;99940.63;4986080;28;20046;-70
2023/06/10 08:27:02;;;;;;;3.60;1.67;;;;;;;24.52;88.55;99960.41;4987924;28;20050;-70
2023/06/10 08:29:27;;;;;;;3.47;1.50;;;;;;;24.61;85.75;100037.63;4984128;28;20039;-70
2023/06/10 08:32:05;;;;;;;3.47;1.38;;;;;;;24.40;86.52;100036.28;4985429;28;20050;-70
2023/06/10 08:34:33;;;;;;;7.25;2.05;;;;;;;24.29;77.19;99942.22;4987904;28;20046;-71
2023/06/10 08:36:59;;;;;;;2.88;1.80;;;;;;;25.06;83.41;100021.28;4984228;28;20042;-71
2023/06/10 08:39:24;;;;;;;4.20;2.42;;;;;;;25.32;86.11;100030.28;4984548;28;20105;-70
2023/06/10 08:42:24;;;;;;;4.82;2.17;;;;;;;25.81;82.40;100024.25;4986045;28;20054;-70
2023/06/10 08:44:55;;;;;;;2.78;1.77;;;;;;;25.92;74.57;100009.22;4983086;28;20050;-70
2023/06/10 08:47:23;;;;;;;5.63;2.85;;;;;;;25.44;73.79;99969.50;4979615;28;20551;-72
2023/06/10 08:49:48;;;;;;;4.15;2.63;;;;;;;25.25;80.94;99924.25;4982964;28;20517;-71
2023/06/10 08:52:19;;;;;;;5.00;3.08;;;;;;;25.47;79.30;99935.25;4975031;28;20038;-70
2023/06/10 08:54:52;;;;;;;5.50;2.03;;;;;;;25.57;67.99;100016.06;4984063;28;20085;-70
2023/06/10 08:57:20;;;;;;;;;;;;;;;26.07;64.17;100010.81;4986908;28;20149;-71
2023/06/10 08:59:46;;;;;;;4.85;1.60;;;;;;;26.99;56.45;100012.19;4977798;28;19976;-70
2023/06/10 09:02:13;;;;;;;2.20;1.33;;;;;;;26.70;55.20;99995.53;4986349;28;20050;-70
2023/06/10 09:04:39;;;;;;;4.38;2.35;;;;;;;26.26;58.23;100008.53;4977769;28;20054;-70
2023/06/10 09:07:06;;;;;;;5.07;1.75;;;;;;;26.26;61.45;100000.47;4986147;28;20041;-70
2023/06/10 09:09:34;;;;;;;3.22;1.75;;;;;;;26.18;63.79;100000.16;4982629;28;20038;-71
2023/06/10 09:12:00;;;;;;;3.20;1.38;;;;;;;25.87;59.02;99936.94;4984545;28;20054;-70
2023/06/10 09:14:25;;;;;;;3.53;1.50;;;;;;;25.86;59.67;99908.31;4981533;28;20552;-71
2023/06/10 09:16:51;;;;;;;2.58;1.33;;;;;;;25.99;59.02;99871.56;4977903;28;21344;-71
2023/06/10 09:19:17;;;;;;;5.32;3.20;;;;;;;27.10;57.39;99996.09;4983988;28;20057;-71
2023/06/10 09:21:42;;;;;;;4.93;1.98;;;;;;;26.72;56.93;99937.91;4986029;28;20419;-71
2023/06/10 09:24:08;;;;;;;3.60;2.17;;;;;;;26.20;53.97;99947.13;4984247;28;20047;-71
2023/06/10 09:26:34;;;;;;;3.15;1.65;;;;;;;26.71;54.76;99914.69;4982419;28;20125;-72
2023/06/10 09:29:08;;;;;;;2.03;1.25;;;;;;;26.73;53.97;99915.41;4983404;28;20050;-71
2023/06/10 09:31:35;;;;;;;4.97;2.00;;;;;;;27.08;51.44;99989.09;4984436;28;20498;-70
2023/06/10 09:34:16;;;;;;;2.08;1.05;;;;;;;26.86;52.88;99984.50;4982691;28;20089;-70
2023/06/10 09:36:42;;;;;;;2.55;1.70;;;;;;;25.96;49.28;99901.34;4986608;28;20137;-71
2023/06/10 09:39:18;;;;;;;2.45;1.45;;;;;;;27.02;45.74;99985.06;4981459;28;20043;-71
2023/06/10 09:41:45;;;;;;;2.47;1.52;;;;;;;28.01;46.84;99980.19;4982526;28;20137;-71
2023/06/10 09:44:16;;;;;;;4.55;1.92;;;;;;;27.45;47.85;99882.06;4978104;28;20047;-71
2023/06/10 09:46:42;;;;;;;3.78;1.77;;;;;;;28.13;46.16;99944.13;4984268;28;20057;-69
2023/06/10 09:49:08;;;;;;;3.60;2.33;;;;;;;27.48;48.03;99961.81;4986013;28;20042;-71
2023/06/10 09:51:33;;;;;;;4.55;2.15;;;;;;;27.29;47.91;99876.19;4985200;28;20038;-71
2023/06/10 09:54:02;;;;;;;2.78;1.23;;;;;;;27.81;46.92;99981.72;4981899;28;20066;-70
2023/06/10 09:56:36;;;;;;;11.27;3.65;;;;;;;28.02;45.36;99939.59;4981559;28;20121;-69
2023/06/10 09:59:02;;;;;;;4.32;1.70;;;;;;;27.99;46.26;99873.25;4985922;28;20812;-70
2023/06/10 10:01:30;;;;;;;5.63;1.48;;;;;;;28.60;45.16;99956.44;4983256;28;20057;-70
2023/06/10 10:03:55;;;;;;;3.45;2.10;;;;;;;28.17;43.36;99864.66;4984475;28;20038;-71
2023/06/10 10:06:21;;;;;;;7.93;2.05;;;;;;;29.44;43.30;99955.75;4982545;28;20215;-71
2023/06/10 10:08:48;;;;;;;5.35;1.65;;;;;;;30.06;41.51;99925.06;4980021;28;20046;-70
2023/06/10 10:11:18;;;;;;;3.28;1.45;;;;;;;29.82;43.23;99873.97;4979868;28;20042;-70
2023/06/10 10:13:47;;;;;;;2.72;1.80;;;;;;;29.84;42.10;99920.69;4985326;28;20048;-70
2023/06/10 10:16:40;;;;;;;3.78;1.75;;;;;;;29.80;41.71;99915.69;4985517;28;20129;-71
2023/06/10 10:19:08;;;;;;;;;;;;;;;28.45;43.10;99946.03;4986066;28;20046;-71
2023/06/10 10:21:39;;;;;;;5.03;3.47;;;;;;;27.90;42.74;99846.19;4978372;28;19926;-71
2023/06/10 10:24:30;;;;;;;3.58;2.60;;;;;;;28.60;43.77;99902.44;4983012;28;20054;-71
2023/06/10 10:26:58;;;;;;;1.73;0.98;;;;;;;28.14;43.22;99865.78;4983316;28;20446;-71
2023/06/10 10:29:30;;;;;;;4.70;2.25;;;;;;;27.41;44.32;99860.88;4985205;28;20054;-71
2023/06/10 10:32:00;;;;;;;3.55;2.05;;;;;;;27.54;43.95;99918.22;4985337;28;20050;-70
2023/06/10 10:35:05;;;;;;;2.65;1.90;;;;;;;27.73;43.69;99883.44;4983639;28;20046;-71
2023/06/10 10:37:31;;;;;;;2.35;1.67;;;;;;;26.47;44.92;99691.28;4968907;28;20062;-71
2023/06/10 10:39:57;;;;;;;4.72;2.65;;;;;;;27.73;42.99;99845.69;4979869;28;20044;-72
2023/06/10 10:42:24;;;;;;;3.38;2.25;;;;;;;27.53;41.45;99836.53;4973989;28;20038;-71
2023/06/10 10:44:51;;;;;;;3.67;2.17;;;;;;;28.64;42.96;99913.03;4974457;28;20054;-72
2023/06/10 10:47:21;;;;;;;3.22;1.80;;;;;;;27.41;41.92;99829.41;4975969;28;20054;-71
2023/06/10 10:49:51;;;;;;;4.18;2.60;;;;;;;28.20;42.45;99908.41;4983152;28;20513;-71
2023/06/10 10:52:16;;;;;;;4.10;2.13;;;;;;;26.92;42.03;99747.06;4973900;28;20061;-70
2023/06/10 10:54:48;;;;;;;4.28;2.67;;;;;;;28.13;42.35;99904.50;4973034;28;20039;-70
2023/06/10 10:57:38;;;;;;;6.18;3.88;;;;;;;26.61;42.40;99757.53;4973097;28;20034;-69
2023/06/10 11:00:05;;;;;;;6.47;2.15;;;;;;;27.23;42.42;99860.47;4979258;28;20046;-70
2023/06/10 11:02:45;;;;;;;2.58;1.48;;;;;;;27.78;42.27;99897.41;4982713;28;20046;-70
2023/06/10 11:05:13;;;;;;;4.00;2.03;;;;;;;26.60;42.92;99796.19;4981051;28;20049;-70
2023/06/10 11:07:39;;;;;;;2.45;1.42;;;;;;;27.11;43.42;99894.59;4979259;28;20054;-71
2023/06/10 11:10:11;;;;;;;2.05;1.50;;;;;;;27.48;42.75;99919.56;4986797;28;20038;-70
2023/06/10 11:12:40;;;;;;;;;;;;;;;27.57;44.01;99902.66;4986110;28;20034;-71
2023/06/10 11:15:06;;;;;;;5.25;2.92;;;;;;;27.08;43.29;99860.69;4980412;28;19952;-71
2023/06/10 11:17:32;;;;;;;6.65;4.20;;;;;;;27.20;42.36;99882.28;4987781;28;20038;-78
2023/06/10 11:19:58;;;;;;;4.13;2.85;;;;;;;27.01;43.92;99808.28;4985762;28;20039;-72
2023/06/10 11:22:24;;;;;;;6.05;2.75;;;;;;;26.70;43.67;99810.66;4980743;28;20431;-73
2023/06/10 11:24:50;;;;;;;9.38;2.88;;;;;;;26.26;44.53;99784.41;4980276;28;20042;-72
2023/06/10 11:27:20;;;;;;;6.15;2.83;;;;;;;26.35;44.44;99815.16;4977478;28;20050;-72
2023/06/10 11:30:01;;;;;;;4.45;2.90;;;;;;;26.24;45.92;99807.88;4984061;28;20070;-72
2023/06/10 11:32:31;;;;;;;6.95;3.08;;;;;;;25.93;46.84;99802.09;4984257;28;20073;-71
2023/06/10 11:34:57;;;;;;;3.83;2.95;;;;;;;26.51;47.08;99894.59;4979768;28;20043;-73